Current Weather

Luke Afb

Glendale, Arizona (KLUF)

Report from: Monday, August 15, 2022 4:58 PM MST
Current time: Monday, August 15, 2022 5:10 PM MST

Nearby weather
Weather history
Weather forecast

Temperature37.6°C (99.7°F)
Heat index38.4°C (101.2°F)
Dew point16.5°C (61.7°F)
Winds 6 kts (3.1 m/s, 6.9 mph) West (280°)
Visibility10 mi. (16.1 km)
Clouds Sky clear
Altimeter29.73 in.Hg (1007 mB)
Relative humidity29 %
Density altitude3,026 ft. (922 m)
Max temp last 6 hours38.0°C (100.4°F)
Min temp last 6 hours33.0°C (91.4°F)
Remarks Fully automated report
System requires maintenance
Automated weather observing station with precipitation discriminator
Sea level pressure sensor not operating.
Pressure falling more slowly
Flight conditions Visual Meteorological Conditions
Raw dataKLUF 152358Z AUTO 28006KT 10SM CLR 38/17 A2973 RMK AO2 SLPNO T03760165 10380 20330 56021 $
An error has occurred. This application may no longer respond until reloaded. Reload 🗙